sensor_id;sensor_type;location;lat;lon;timestamp;pressure;altitude;pressure_sealevel;temperature;humidity
49627;BME280;35527;54.616;39.786;2022-12-31T00:02:51;99592.19;;;1.70;100.00
49627;BME280;35527;54.616;39.786;2022-12-31T00:05:57;99587.94;;;1.70;100.00
49627;BME280;35527;54.616;39.786;2022-12-31T00:09:26;99589.63;;;1.68;100.00
49627;BME280;35527;54.616;39.786;2022-12-31T00:12:28;99583.72;;;1.65;100.00
49627;BME280;35527;54.616;39.786;2022-12-31T00:15:32;99571.81;;;1.67;100.00
49627;BME280;35527;54.616;39.786;2022-12-31T00:19:02;99558.22;;;1.60;100.00
49627;BME280;35527;54.616;39.786;2022-12-31T00:22:07;99549.84;;;1.49;100.00
49627;BME280;35527;54.616;39.786;2022-12-31T00:25:11;99546.38;;;1.53;100.00
49627;BME280;35527;54.616;39.786;2022-12-31T00:28:15;99554.03;;;1.51;100.00
49627;BME280;35527;54.616;39.786;2022-12-31T00:31:21;99547.22;;;1.55;100.00
49627;BME280;35527;54.616;39.786;2022-12-31T00:34:29;99543.84;;;1.53;100.00
49627;BME280;35527;54.616;39.786;2022-12-31T00:37:33;99532.78;;;1.51;100.00
49627;BME280;35527;54.616;39.786;2022-12-31T00:40:40;99534.53;;;1.46;100.00
49627;BME280;35527;54.616;39.786;2022-12-31T00:43:43;99534.53;;;1.44;100.00
49627;BME280;35527;54.616;39.786;2022-12-31T00:46:46;99529.41;;;1.46;100.00
49627;BME280;35527;54.616;39.786;2022-12-31T00:49:51;99514.25;;;1.30;100.00
49627;BME280;35527;54.616;39.786;2022-12-31T00:52:55;99515.09;;;1.28;100.00
49627;BME280;35527;54.616;39.786;2022-12-31T00:56:08;99521.06;;;1.25;100.00
49627;BME280;35527;54.616;39.786;2022-12-31T00:59:14;99511.78;;;1.18;100.00
49627;BME280;35527;54.616;39.786;2022-12-31T01:02:19;99506.50;;;1.43;100.00
49627;BME280;35527;54.616;39.786;2022-12-31T01:05:23;99504.00;;;1.38;100.00
49627;BME280;35527;54.616;39.786;2022-12-31T01:08:28;99506.63;;;1.24;100.00
49627;BME280;35527;54.616;39.786;2022-12-31T01:11:56;99503.22;;;1.25;100.00
49627;BME280;35527;54.616;39.786;2022-12-31T01:14:59;99501.47;;;1.33;100.00
49627;BME280;35527;54.616;39.786;2022-12-31T01:18:04;99492.13;;;1.34;100.00
49627;BME280;35527;54.616;39.786;2022-12-31T01:21:33;99495.56;;;1.27;100.00
49627;BME280;35527;54.616;39.786;2022-12-31T01:24:36;99494.78;;;1.14;100.00
49627;BME280;35527;54.616;39.786;2022-12-31T01:28:08;99505.88;;;1.08;100.00
49627;BME280;35527;54.616;39.786;2022-12-31T01:31:17;99510.94;;;1.15;100.00
49627;BME280;35527;54.616;39.786;2022-12-31T01:34:46;99500.75;;;1.13;100.00
49627;BME280;35527;54.616;39.786;2022-12-31T01:37:50;99501.63;;;1.10;100.00
49627;BME280;35527;54.616;39.786;2022-12-31T01:40:56;99494.81;;;1.12;100.00
49627;BME280;35527;54.616;39.786;2022-12-31T01:47:39;99486.41;;;0.95;100.00
49627;BME280;35527;54.616;39.786;2022-12-31T01:50:44;99486.41;;;0.94;100.00
49627;BME280;35527;54.616;39.786;2022-12-31T01:53:48;99486.41;;;0.94;100.00
49627;BME280;35527;54.616;39.786;2022-12-31T01:56:52;99473.66;;;0.97;100.00
49627;BME280;35527;54.616;39.786;2022-12-31T01:59:58;99476.97;;;1.12;100.00
49627;BME280;35527;54.616;39.786;2022-12-31T02:03:04;99471.09;;;1.01;100.00
49627;BME280;35527;54.616;39.786;2022-12-31T02:09:18;99461.78;;;1.00;100.00
49627;BME280;35527;54.616;39.786;2022-12-31T02:12:27;99460.06;;;0.99;100.00
49627;BME280;35527;54.616;39.786;2022-12-31T02:16:01;99440.53;;;0.97;100.00
49627;BME280;35527;54.616;39.786;2022-12-31T02:22:46;99450.72;;;1.01;100.00
49627;BME280;35527;54.616;39.786;2022-12-31T02:26:07;99452.44;;;0.98;100.00
49627;BME280;35527;54.616;39.786;2022-12-31T02:33:22;99448.97;;;1.09;100.00
49627;BME280;35527;54.616;39.786;2022-12-31T02:36:34;99440.44;;;1.10;100.00
49627;BME280;35527;54.616;39.786;2022-12-31T02:39:40;99440.47;;;1.09;100.00
49627;BME280;35527;54.616;39.786;2022-12-31T02:42:44;99435.41;;;1.01;100.00
49627;BME280;35527;54.616;39.786;2022-12-31T02:46:13;99431.19;;;1.03;100.00
49627;BME280;35527;54.616;39.786;2022-12-31T02:50:19;99431.16;;;1.02;100.00
49627;BME280;35527;54.616;39.786;2022-12-31T02:57:25;99432.00;;;1.02;100.00
49627;BME280;35527;54.616;39.786;2022-12-31T03:00:41;99426.97;;;0.93;100.00
49627;BME280;35527;54.616;39.786;2022-12-31T03:04:05;99428.78;;;0.76;100.00
49627;BME280;35527;54.616;39.786;2022-12-31T03:07:29;99425.38;;;0.78;100.00
49627;BME280;35527;54.616;39.786;2022-12-31T03:10:33;99430.44;;;0.80;100.00
49627;BME280;35527;54.616;39.786;2022-12-31T03:13:37;99431.38;;;0.70;100.00
49627;BME280;35527;54.616;39.786;2022-12-31T03:16:39;99423.66;;;0.77;100.00
49627;BME280;35527;54.616;39.786;2022-12-31T03:19:42;99436.41;;;0.76;100.00
49627;BME280;35527;54.616;39.786;2022-12-31T03:23:13;99422.88;;;0.72;100.00
49627;BME280;35527;54.616;39.786;2022-12-31T03:26:18;99431.34;;;0.71;100.00
49627;BME280;35527;54.616;39.786;2022-12-31T03:29:22;99424.66;;;0.58;100.00
49627;BME280;35527;54.616;39.786;2022-12-31T03:32:24;99430.53;;;0.63;100.00
49627;BME280;35527;54.616;39.786;2022-12-31T03:35:56;99428.00;;;0.60;100.00
49627;BME280;35527;54.616;39.786;2022-12-31T03:38:59;99428.88;;;0.60;100.00
49627;BME280;35527;54.616;39.786;2022-12-31T03:42:03;99406.78;;;0.62;100.00
49627;BME280;35527;54.616;39.786;2022-12-31T03:45:07;99408.47;;;0.65;100.00
49627;BME280;35527;54.616;39.786;2022-12-31T03:48:12;99408.44;;;0.68;100.00
49627;BME280;35527;54.616;39.786;2022-12-31T03:51:15;99406.75;;;0.68;100.00
49627;BME280;35527;54.616;39.786;2022-12-31T03:54:18;99423.72;;;0.73;100.00
49627;BME280;35527;54.616;39.786;2022-12-31T03:57:22;99399.13;;;0.67;100.00
49627;BME280;35527;54.616;39.786;2022-12-31T04:00:52;99397.34;;;0.81;100.00
49627;BME280;35527;54.616;39.786;2022-12-31T04:03:55;99407.53;;;0.80;100.00
49627;BME280;35527;54.616;39.786;2022-12-31T04:06:58;99387.16;;;0.78;100.00
49627;BME280;35527;54.616;39.786;2022-12-31T04:10:08;99399.03;;;0.82;100.00
49627;BME280;35527;54.616;39.786;2022-12-31T04:13:40;99408.38;;;0.83;100.00
49627;BME280;35527;54.616;39.786;2022-12-31T04:16:43;99407.50;;;0.86;100.00
49627;BME280;35527;54.616;39.786;2022-12-31T04:19:47;99397.31;;;0.86;100.00
49627;BME280;35527;54.616;39.786;2022-12-31T04:22:49;99413.41;;;0.93;100.00
49627;BME280;35527;54.616;39.786;2022-12-31T04:25:53;99395.66;;;0.80;100.00
49627;BME280;35527;54.616;39.786;2022-12-31T04:28:57;99404.09;;;0.85;100.00
49627;BME280;35527;54.616;39.786;2022-12-31T04:32:01;99393.94;;;0.84;100.00
49627;BME280;35527;54.616;39.786;2022-12-31T04:35:05;99420.16;;;0.97;100.00
49627;BME280;35527;54.616;39.786;2022-12-31T04:38:08;99397.34;;;0.81;100.00
49627;BME280;35527;54.616;39.786;2022-12-31T04:41:14;99400.75;;;0.80;100.00
49627;BME280;35527;54.616;39.786;2022-12-31T04:44:21;99404.06;;;0.93;100.00
49627;BME280;35527;54.616;39.786;2022-12-31T04:47:23;99389.78;;;0.69;100.00
49627;BME280;35527;54.616;39.786;2022-12-31T04:50:27;99405.84;;;0.77;100.00
49627;BME280;35527;54.616;39.786;2022-12-31T04:53:31;99397.38;;;0.75;100.00
49627;BME280;35527;54.616;39.786;2022-12-31T04:56:36;99379.63;;;0.61;100.00
49627;BME280;35527;54.616;39.786;2022-12-31T04:59:38;99406.75;;;0.72;100.00
49627;BME280;35527;54.616;39.786;2022-12-31T05:02:41;99401.66;;;0.68;100.00
49627;BME280;35527;54.616;39.786;2022-12-31T05:05:45;99397.41;;;0.72;100.00
49627;BME280;35527;54.616;39.786;2022-12-31T05:08:49;99418.56;;;0.79;100.00
49627;BME280;35527;54.616;39.786;2022-12-31T05:11:59;99399.94;;;0.72;100.00
49627;BME280;35527;54.616;39.786;2022-12-31T05:15:04;99417.72;;;0.81;100.00
49627;BME280;35527;54.616;39.786;2022-12-31T05:18:08;99427.88;;;0.84;100.00
49627;BME280;35527;54.616;39.786;2022-12-31T05:21:16;99427.88;;;0.89;100.00
49627;BME280;35527;54.616;39.786;2022-12-31T05:24:20;99421.91;;;0.88;100.00
49627;BME280;35527;54.616;39.786;2022-12-31T05:27:27;99412.59;;;0.84;100.00
49627;BME280;35527;54.616;39.786;2022-12-31T05:30:35;99439.72;;;0.93;100.00
49627;BME280;35527;54.616;39.786;2022-12-31T05:33:41;99426.16;;;0.88;100.00
49627;BME280;35527;54.616;39.786;2022-12-31T05:36:43;99417.66;;;0.87;100.00
49627;BME280;35527;54.616;39.786;2022-12-31T05:39:49;99420.19;;;0.90;100.00
49627;BME280;35527;54.616;39.786;2022-12-31T05:43:19;99428.66;;;0.96;100.00
49627;BME280;35527;54.616;39.786;2022-12-31T05:46:21;99426.97;;;0.96;100.00
49627;BME280;35527;54.616;39.786;2022-12-31T05:49:25;99419.34;;;0.92;100.00
49627;BME280;35527;54.616;39.786;2022-12-31T05:52:35;99432.06;;;0.98;100.00
49627;BME280;35527;54.616;39.786;2022-12-31T05:55:38;99431.19;;;0.99;100.00
49627;BME280;35527;54.616;39.786;2022-12-31T05:58:43;99426.94;;;0.99;100.00
49627;BME280;35527;54.616;39.786;2022-12-31T06:01:49;99426.94;;;0.99;100.00
49627;BME280;35527;54.616;39.786;2022-12-31T06:04:52;99437.09;;;1.04;100.00
49627;BME280;35527;54.616;39.786;2022-12-31T06:07:55;99412.47;;;1.04;100.00
49627;BME280;35527;54.616;39.786;2022-12-31T06:10:58;99432.03;;;1.01;100.00
49627;BME280;35527;54.616;39.786;2022-12-31T06:14:01;99436.22;;;1.08;100.00
49627;BME280;35527;54.616;39.786;2022-12-31T06:17:05;99436.25;;;1.06;100.00
49627;BME280;35527;54.616;39.786;2022-12-31T06:20:09;99434.50;;;1.13;100.00
49627;BME280;35527;54.616;39.786;2022-12-31T06:23:14;99434.50;;;1.13;100.00
49627;BME280;35527;54.616;39.786;2022-12-31T06:26:17;99440.38;;;1.20;100.00
49627;BME280;35527;54.616;39.786;2022-12-31T06:29:46;99434.50;;;1.13;100.00
49627;BME280;35527;54.616;39.786;2022-12-31T06:32:53;99458.22;;;1.21;100.00
49627;BME280;35527;54.616;39.786;2022-12-31T06:36:00;99442.13;;;1.13;100.00
49627;BME280;35527;54.616;39.786;2022-12-31T06:39:03;99459.09;;;1.17;100.00
49627;BME280;35527;54.616;39.786;2022-12-31T06:42:06;99465.88;;;1.21;100.00
49627;BME280;35527;54.616;39.786;2022-12-31T06:45:09;99453.13;;;1.20;100.00
49627;BME280;35527;54.616;39.786;2022-12-31T06:48:16;99452.19;;;1.31;100.00
49627;BME280;35527;54.616;39.786;2022-12-31T06:51:20;99474.22;;;1.42;100.00
49627;BME280;35527;54.616;39.786;2022-12-31T06:54:24;99481.06;;;1.35;100.00
49627;BME280;35527;54.616;39.786;2022-12-31T06:57:28;99462.44;;;1.25;100.00
49627;BME280;35527;54.616;39.786;2022-12-31T07:01:28;99481.03;;;1.40;100.00
49627;BME280;35527;54.616;39.786;2022-12-31T07:08:11;99477.72;;;1.27;100.00
49627;BME280;35527;54.616;39.786;2022-12-31T07:11:26;99484.50;;;1.31;100.00
49627;BME280;35527;54.616;39.786;2022-12-31T07:14:36;99493.78;;;1.37;100.00
49627;BME280;35527;54.616;39.786;2022-12-31T07:21:35;99488.63;;;1.46;100.00
49627;BME280;35527;54.616;39.786;2022-12-31T07:24:40;99486.06;;;1.50;100.00
49627;BME280;35527;54.616;39.786;2022-12-31T07:28:10;99500.56;;;1.42;100.00
49627;BME280;35527;54.616;39.786;2022-12-31T07:35:53;99510.69;;;1.53;100.00
49627;BME280;35527;54.616;39.786;2022-12-31T07:39:04;99506.44;;;1.55;100.00
49627;BME280;35527;54.616;39.786;2022-12-31T07:42:30;99515.78;;;1.53;100.00
49627;BME280;35527;54.616;39.786;2022-12-31T07:45:49;99509.03;;;1.46;100.00
49627;BME280;35527;54.616;39.786;2022-12-31T07:48:57;99525.16;;;1.52;100.00
49627;BME280;35527;54.616;39.786;2022-12-31T07:52:00;99512.41;;;1.48;100.00
49627;BME280;35527;54.616;39.786;2022-12-31T07:55:04;99508.13;;;1.51;100.00
49627;BME280;35527;54.616;39.786;2022-12-31T07:58:21;99500.47;;;1.57;100.00
49627;BME280;35527;54.616;39.786;2022-12-31T08:14:42;99515.56;;;1.84;100.00
49627;BME280;35527;54.616;39.786;2022-12-31T08:17:45;99524.00;;;1.90;100.00
49627;BME280;35527;54.616;39.786;2022-12-31T08:21:03;99531.66;;;1.90;100.00
49627;BME280;35527;54.616;39.786;2022-12-31T08:28:18;99527.31;;;1.98;100.00
49627;BME280;35527;54.616;39.786;2022-12-31T08:32:10;99538.22;;;2.14;100.00
49627;BME280;35527;54.616;39.786;2022-12-31T08:41:53;99529.78;;;2.08;100.00
49627;BME280;35527;54.616;39.786;2022-12-31T08:48:42;99524.00;;;1.92;100.00
49627;BME280;35527;54.616;39.786;2022-12-31T08:51:46;99533.25;;;2.02;100.00
49627;BME280;35527;54.616;39.786;2022-12-31T08:54:53;99538.34;;;2.02;100.00
49627;BME280;35527;54.616;39.786;2022-12-31T09:05:15;99548.91;;;1.61;100.00
49627;BME280;35527;54.616;39.786;2022-12-31T09:09:00;99552.31;;;1.56;100.00
49627;BME280;35527;54.616;39.786;2022-12-31T09:15:37;99554.94;;;1.43;100.00
49627;BME280;35527;54.616;39.786;2022-12-31T09:18:48;99540.59;;;1.28;100.00
49627;BME280;35527;54.616;39.786;2022-12-31T09:21:51;99565.13;;;1.46;100.00
49627;BME280;35527;54.616;39.786;2022-12-31T09:24:59;99560.03;;;1.46;100.00
49627;BME280;35527;54.616;39.786;2022-12-31T09:32:12;99582.97;;;1.52;100.00
49627;BME280;35527;54.616;39.786;2022-12-31T09:45:39;99594.13;;;1.29;100.00
49627;BME280;35527;54.616;39.786;2022-12-31T09:49:16;99598.44;;;1.15;100.00
49627;BME280;35527;54.616;39.786;2022-12-31T09:56:11;99606.09;;;1.10;100.00
49627;BME280;35527;54.616;39.786;2022-12-31T09:59:38;99590.81;;;1.03;100.00
49627;BME280;35527;54.616;39.786;2022-12-31T10:06:17;99620.56;;;1.04;100.00
49627;BME280;35527;54.616;39.786;2022-12-31T10:16:47;99629.91;;;0.97;100.00
49627;BME280;35527;54.616;39.786;2022-12-31T10:20:09;99647.75;;;1.05;100.00
49627;BME280;35527;54.616;39.786;2022-12-31T10:30:14;99650.28;;;1.12;100.00
49627;BME280;35527;54.616;39.786;2022-12-31T10:33:33;99656.22;;;1.08;100.00
49627;BME280;35527;54.616;39.786;2022-12-31T10:50:34;99688.56;;;0.79;100.00
49627;BME280;35527;54.616;39.786;2022-12-31T11:01:08;99719.13;;;0.74;100.00
49627;BME280;35527;54.616;39.786;2022-12-31T11:08:09;99719.16;;;0.70;100.00
49627;BME280;35527;54.616;39.786;2022-12-31T11:18:59;99714.03;;;0.71;100.00
49627;BME280;35527;54.616;39.786;2022-12-31T11:38:19;99753.09;;;0.82;100.00
49627;BME280;35527;54.616;39.786;2022-12-31T11:41:49;99760.75;;;0.78;100.00
49627;BME280;35527;54.616;39.786;2022-12-31T11:45:13;99743.78;;;0.69;100.00
49627;BME280;35527;54.616;39.786;2022-12-31T11:51:48;99786.22;;;0.70;100.00
49627;BME280;35527;54.616;39.786;2022-12-31T11:55:11;99790.44;;;0.71;100.00
49627;BME280;35527;54.616;39.786;2022-12-31T11:58:21;99787.91;;;0.66;100.00
49627;BME280;35527;54.616;39.786;2022-12-31T12:01:33;99787.88;;;0.68;100.00
49627;BME280;35527;54.616;39.786;2022-12-31T12:05:13;99798.94;;;0.72;100.00
49627;BME280;35527;54.616;39.786;2022-12-31T12:08:16;99798.09;;;0.63;100.00
49627;BME280;35527;54.616;39.786;2022-12-31T12:11:23;99808.25;;;0.65;100.00
49627;BME280;35527;54.616;39.786;2022-12-31T12:14:32;99817.63;;;0.71;100.00
49627;BME280;35527;54.616;39.786;2022-12-31T12:17:38;99816.75;;;0.70;100.00
49627;BME280;35527;54.616;39.786;2022-12-31T12:20:43;99821.00;;;0.66;100.00
49627;BME280;35527;54.616;39.786;2022-12-31T12:24:18;99841.38;;;0.68;100.00
49627;BME280;35527;54.616;39.786;2022-12-31T12:27:26;99854.97;;;0.70;100.00
49627;BME280;35527;54.616;39.786;2022-12-31T12:30:37;99838.81;;;0.62;100.00
49627;BME280;35527;54.616;39.786;2022-12-31T12:33:44;99860.03;;;0.68;100.00
49627;BME280;35527;54.616;39.786;2022-12-31T12:36:49;99852.41;;;0.62;100.00
49627;BME280;35527;54.616;39.786;2022-12-31T12:40:18;99883.84;;;0.72;100.00
49627;BME280;35527;54.616;39.786;2022-12-31T12:43:24;99875.31;;;0.68;100.00
49627;BME280;35527;54.616;39.786;2022-12-31T12:46:37;99885.53;;;0.70;100.00
49627;BME280;35527;54.616;39.786;2022-12-31T12:49:47;99870.22;;;0.65;100.00
49627;BME280;35527;54.616;39.786;2022-12-31T12:53:23;99887.22;;;0.71;100.00
49627;BME280;35527;54.616;39.786;2022-12-31T12:56:39;99899.97;;;0.74;100.00
49627;BME280;35527;54.616;39.786;2022-12-31T13:07:39;99931.41;;;0.79;100.00
49627;BME280;35527;54.616;39.786;2022-12-31T13:27:54;99959.44;;;0.78;100.00
49627;BME280;35527;54.616;39.786;2022-12-31T13:31:03;99961.16;;;0.89;100.00
49627;BME280;35527;54.616;39.786;2022-12-31T13:34:30;99967.06;;;0.88;100.00
49627;BME280;35527;54.616;39.786;2022-12-31T13:37:39;99973.03;;;0.87;100.00
49627;BME280;35527;54.616;39.786;2022-12-31T13:40:57;99983.25;;;0.92;100.00
49627;BME280;35527;54.616;39.786;2022-12-31T13:44:48;99991.72;;;0.93;100.00
49627;BME280;35527;54.616;39.786;2022-12-31T13:47:58;99977.25;;;0.81;100.00
49627;BME280;35527;54.616;39.786;2022-12-31T13:51:14;99995.97;;;0.86;100.00
49627;BME280;35527;54.616;39.786;2022-12-31T13:58:03;99996.78;;;0.85;100.00
49627;BME280;35527;54.616;39.786;2022-12-31T14:01:21;100022.31;;;0.96;100.00
49627;BME280;35527;54.616;39.786;2022-12-31T14:04:32;100028.25;;;0.99;100.00
49627;BME280;35527;54.616;39.786;2022-12-31T14:07:52;100027.41;;;0.94;100.00
49627;BME280;35527;54.616;39.786;2022-12-31T14:11:19;100035.06;;;0.93;100.00
49627;BME280;35527;54.616;39.786;2022-12-31T14:21:11;100036.72;;;0.90;100.00
49627;BME280;35527;54.616;39.786;2022-12-31T14:24:39;100063.94;;;1.02;100.00
49627;BME280;35527;54.616;39.786;2022-12-31T14:27:45;100052.91;;;0.99;100.00
49627;BME280;35527;54.616;39.786;2022-12-31T14:30:58;100066.50;;;1.01;100.00
49627;BME280;35527;54.616;39.786;2022-12-31T14:34:37;100063.16;;;1.12;100.00
49627;BME280;35527;54.616;39.786;2022-12-31T14:41:38;100064.88;;;1.18;100.00
49627;BME280;35527;54.616;39.786;2022-12-31T14:45:14;100045.28;;;1.05;100.00
49627;BME280;35527;54.616;39.786;2022-12-31T14:52:22;100052.09;;;1.07;100.00
49627;BME280;35527;54.616;39.786;2022-12-31T14:55:31;100067.41;;;1.18;100.00
49627;BME280;35527;54.616;39.786;2022-12-31T14:58:40;100068.25;;;1.17;100.00
49627;BME280;35527;54.616;39.786;2022-12-31T15:01:45;100080.16;;;1.20;100.00
49627;BME280;35527;54.616;39.786;2022-12-31T15:04:50;100087.78;;;1.12;100.00
49627;BME280;35527;54.616;39.786;2022-12-31T15:22:02;100082.69;;;1.12;100.00
49627;BME280;35527;54.616;39.786;2022-12-31T15:25:36;100094.59;;;1.13;100.00
49627;BME280;35527;54.616;39.786;2022-12-31T15:28:42;100079.25;;;1.01;100.00
49627;BME280;35527;54.616;39.786;2022-12-31T15:31:46;100080.97;;;1.08;100.00
49627;BME280;35527;54.616;39.786;2022-12-31T15:35:03;100084.34;;;1.08;100.00
49627;BME280;35527;54.616;39.786;2022-12-31T15:44:50;100095.44;;;1.15;100.00
49627;BME280;35527;54.616;39.786;2022-12-31T15:48:00;100097.16;;;1.19;100.00
49627;BME280;35527;54.616;39.786;2022-12-31T15:51:15;100104.81;;;1.24;100.00
49627;BME280;35527;54.616;39.786;2022-12-31T15:54:26;100100.56;;;1.26;100.00
49627;BME280;35527;54.616;39.786;2022-12-31T15:57:40;100081.88;;;1.18;100.00
49627;BME280;35527;54.616;39.786;2022-12-31T16:04:17;100094.59;;;1.15;100.00
49627;BME280;35527;54.616;39.786;2022-12-31T16:07:22;100104.81;;;1.22;100.00
49627;BME280;35527;54.616;39.786;2022-12-31T16:10:29;100095.44;;;1.20;100.00
49627;BME280;35527;54.616;39.786;2022-12-31T16:13:35;100092.88;;;1.10;100.00
49627;BME280;35527;54.616;39.786;2022-12-31T16:16:54;100097.09;;;1.11;100.00
49627;BME280;35527;54.616;39.786;2022-12-31T16:19:58;100105.63;;;1.13;100.00
49627;BME280;35527;54.616;39.786;2022-12-31T16:23:17;100106.50;;;1.19;100.00
49627;BME280;35527;54.616;39.786;2022-12-31T16:26:47;100114.13;;;1.20;100.00
49627;BME280;35527;54.616;39.786;2022-12-31T16:30:02;100115.00;;;1.15;100.00
49627;BME280;35527;54.616;39.786;2022-12-31T16:33:11;100115.84;;;1.15;100.00
49627;BME280;35527;54.616;39.786;2022-12-31T16:36:19;100125.19;;;1.18;100.00
49627;BME280;35527;54.616;39.786;2022-12-31T16:39:29;100131.16;;;1.21;100.00
49627;BME280;35527;54.616;39.786;2022-12-31T16:42:36;100122.66;;;1.21;100.00
49627;BME280;35527;54.616;39.786;2022-12-31T16:45:45;100133.69;;;1.23;100.00
49627;BME280;35527;54.616;39.786;2022-12-31T16:48:53;100116.69;;;1.20;100.00
49627;BME280;35527;54.616;39.786;2022-12-31T16:52:04;100132.88;;;1.30;100.00
49627;BME280;35527;54.616;39.786;2022-12-31T16:55:13;100131.16;;;1.21;100.00
49627;BME280;35527;54.616;39.786;2022-12-31T16:58:28;100127.75;;;1.22;100.00
49627;BME280;35527;54.616;39.786;2022-12-31T17:01:34;100128.56;;;1.10;100.00
49627;BME280;35527;54.616;39.786;2022-12-31T17:04:38;100137.13;;;1.23;100.00
49627;BME280;35527;54.616;39.786;2022-12-31T17:07:48;100131.16;;;1.21;100.00
49627;BME280;35527;54.616;39.786;2022-12-31T17:10:53;100138.81;;;1.30;100.00
49627;BME280;35527;54.616;39.786;2022-12-31T17:17:19;100140.50;;;1.28;100.00
49627;BME280;35527;54.616;39.786;2022-12-31T17:20:31;100131.97;;;1.20;100.00
49627;BME280;35527;54.616;39.786;2022-12-31T17:23:37;100132.84;;;1.18;100.00
49627;BME280;35527;54.616;39.786;2022-12-31T17:26:44;100137.09;;;1.22;100.00
49627;BME280;35527;54.616;39.786;2022-12-31T17:29:47;100133.69;;;1.26;100.00
49627;BME280;35527;54.616;39.786;2022-12-31T17:36:23;100150.69;;;1.19;100.00
49627;BME280;35527;54.616;39.786;2022-12-31T17:42:42;100148.13;;;1.19;100.00
49627;BME280;35527;54.616;39.786;2022-12-31T17:45:49;100157.47;;;1.20;100.00
49627;BME280;35527;54.616;39.786;2022-12-31T17:49:00;100155.78;;;1.19;100.00
49627;BME280;35527;54.616;39.786;2022-12-31T17:52:10;100171.13;;;1.27;100.00
49627;BME280;35527;54.616;39.786;2022-12-31T17:55:13;100154.94;;;1.19;100.00
49627;BME280;35527;54.616;39.786;2022-12-31T17:58:32;100157.50;;;1.25;100.00
49627;BME280;35527;54.616;39.786;2022-12-31T18:01:36;100156.63;;;1.20;100.00
49627;BME280;35527;54.616;39.786;2022-12-31T18:04:39;100162.53;;;1.11;100.00
49627;BME280;35527;54.616;39.786;2022-12-31T18:07:42;100185.53;;;1.19;100.00
49627;BME280;35527;54.616;39.786;2022-12-31T18:10:50;100153.19;;;1.10;100.00
49627;BME280;35527;54.616;39.786;2022-12-31T18:13:54;100141.25;;;1.06;100.00
49627;BME280;35527;54.616;39.786;2022-12-31T18:16:59;100149.75;;;1.00;100.00
49627;BME280;35527;54.616;39.786;2022-12-31T18:20:03;100143.78;;;1.00;100.00
49627;BME280;35527;54.616;39.786;2022-12-31T18:23:22;100153.16;;;1.04;100.00
49627;BME280;35527;54.616;39.786;2022-12-31T18:26:30;100160.84;;;1.11;100.00
49627;BME280;35527;54.616;39.786;2022-12-31T18:29:34;100149.75;;;1.05;100.00
49627;BME280;35527;54.616;39.786;2022-12-31T18:32:37;100144.66;;;1.02;100.00
49627;BME280;35527;54.616;39.786;2022-12-31T18:35:44;100153.19;;;1.10;100.00
49627;BME280;35527;54.616;39.786;2022-12-31T18:39:12;100144.69;;;1.09;100.00
49627;BME280;35527;54.616;39.786;2022-12-31T18:42:17;100142.13;;;1.05;100.00
49627;BME280;35527;54.616;39.786;2022-12-31T18:45:20;100162.53;;;1.09;100.00
49627;BME280;35527;54.616;39.786;2022-12-31T18:48:27;100166.78;;;1.13;100.00
49627;BME280;35527;54.616;39.786;2022-12-31T18:51:33;100154.00;;;1.06;100.00
49627;BME280;35527;54.616;39.786;2022-12-31T18:54:37;100170.19;;;1.12;100.00
49627;BME280;35527;54.616;39.786;2022-12-31T18:57:39;100153.13;;;0.99;100.00
49627;BME280;35527;54.616;39.786;2022-12-31T19:00:44;100143.78;;;1.00;100.00
49627;BME280;35527;54.616;39.786;2022-12-31T19:03:48;100140.41;;;1.01;100.00
49627;BME280;35527;54.616;39.786;2022-12-31T19:06:52;100159.13;;;1.07;100.00
49627;BME280;35527;54.616;39.786;2022-12-31T19:09:56;100153.22;;;1.16;100.00
49627;BME280;35527;54.616;39.786;2022-12-31T19:13:01;100131.94;;;1.06;100.00
49627;BME280;35527;54.616;39.786;2022-12-31T19:16:04;100131.91;;;1.00;100.00
49627;BME280;35527;54.616;39.786;2022-12-31T19:19:11;100147.22;;;1.06;100.00
49627;BME280;35527;54.616;39.786;2022-12-31T19:22:14;100153.19;;;1.07;100.00
49627;BME280;35527;54.616;39.786;2022-12-31T19:25:24;100147.22;;;1.08;100.00
49627;BME280;35527;54.616;39.786;2022-12-31T19:28:27;100145.53;;;1.04;100.00
49627;BME280;35527;54.616;39.786;2022-12-31T19:31:32;100152.31;;;1.05;100.00
49627;BME280;35527;54.616;39.786;2022-12-31T19:34:34;100151.50;;;1.09;100.00
49627;BME280;35527;54.616;39.786;2022-12-31T19:37:39;100137.03;;;1.03;100.00
49627;BME280;35527;54.616;39.786;2022-12-31T19:41:17;100143.84;;;1.07;100.00
49627;BME280;35527;54.616;39.786;2022-12-31T19:44:21;100113.19;;;0.97;100.00
49627;BME280;35527;54.616;39.786;2022-12-31T19:47:23;100139.56;;;1.02;100.00
49627;BME280;35527;54.616;39.786;2022-12-31T19:50:30;100149.81;;;1.16;100.00
49627;BME280;35527;54.616;39.786;2022-12-31T19:53:36;100134.50;;;1.17;100.00
49627;BME280;35527;54.616;39.786;2022-12-31T19:56:40;100109.00;;;1.08;100.00
49627;BME280;35527;54.616;39.786;2022-12-31T19:59:42;100124.31;;;1.14;100.00
49627;BME280;35527;54.616;39.786;2022-12-31T20:02:47;100112.41;;;1.11;100.00
49627;BME280;35527;54.616;39.786;2022-12-31T20:05:59;100140.50;;;1.22;100.00
49627;BME280;35527;54.616;39.786;2022-12-31T20:09:03;100128.59;;;1.21;100.00
49627;BME280;35527;54.616;39.786;2022-12-31T20:12:06;100114.97;;;1.13;100.00
49627;BME280;35527;54.616;39.786;2022-12-31T20:15:11;100123.50;;;1.23;100.00
49627;BME280;35527;54.616;39.786;2022-12-31T20:18:15;100127.75;;;1.21;100.00
49627;BME280;35527;54.616;39.786;2022-12-31T20:21:25;100128.59;;;1.21;100.00
49627;BME280;35527;54.616;39.786;2022-12-31T20:24:29;100120.09;;;1.15;100.00